sensor_id;sensor_type;location;lat;lon;timestamp;P1;durP1;ratioP1;P2;durP2;ratioP2
22754;SDS011;11544;42.020;23.094;2022-11-15T00:00:54;27.85;;;12.15;;
22754;SDS011;11544;42.020;23.094;2022-11-15T00:03:22;25.25;;;13.50;;
22754;SDS011;11544;42.020;23.094;2022-11-15T00:05:50;28.80;;;12.60;;
22754;SDS011;11544;42.020;23.094;2022-11-15T00:08:17;16.23;;;8.60;;
22754;SDS011;11544;42.020;23.094;2022-11-15T00:10:53;17.20;;;8.50;;
22754;SDS011;11544;42.020;23.094;2022-11-15T00:13:21;18.13;;;8.50;;
22754;SDS011;11544;42.020;23.094;2022-11-15T00:15:48;14.15;;;8.20;;
22754;SDS011;11544;42.020;23.094;2022-11-15T00:18:15;12.50;;;7.35;;
22754;SDS011;11544;42.020;23.094;2022-11-15T00:20:42;14.10;;;7.53;;
22754;SDS011;11544;42.020;23.094;2022-11-15T00:23:10;14.05;;;8.02;;
22754;SDS011;11544;42.020;23.094;2022-11-15T00:25:36;13.85;;;7.05;;
22754;SDS011;11544;42.020;23.094;2022-11-15T00:28:03;15.05;;;6.72;;
22754;SDS011;11544;42.020;23.094;2022-11-15T00:30:30;13.88;;;7.65;;
22754;SDS011;11544;42.020;23.094;2022-11-15T00:33:00;13.43;;;7.18;;
22754;SDS011;11544;42.020;23.094;2022-11-15T00:35:30;14.48;;;7.75;;
22754;SDS011;11544;42.020;23.094;2022-11-15T00:37:59;12.18;;;6.57;;
22754;SDS011;11544;42.020;23.094;2022-11-15T00:40:27;21.55;;;9.60;;
22754;SDS011;11544;42.020;23.094;2022-11-15T00:42:54;14.98;;;9.30;;
22754;SDS011;11544;42.020;23.094;2022-11-15T00:45:20;24.05;;;10.23;;
22754;SDS011;11544;42.020;23.094;2022-11-15T00:47:47;19.42;;;10.27;;
22754;SDS011;11544;42.020;23.094;2022-11-15T00:50:14;25.48;;;12.55;;
22754;SDS011;11544;42.020;23.094;2022-11-15T00:52:41;22.83;;;11.80;;
22754;SDS011;11544;42.020;23.094;2022-11-15T00:55:15;27.05;;;12.82;;
22754;SDS011;11544;42.020;23.094;2022-11-15T00:57:43;26.83;;;12.40;;
22754;SDS011;11544;42.020;23.094;2022-11-15T01:00:10;29.15;;;13.65;;
22754;SDS011;11544;42.020;23.094;2022-11-15T01:02:37;22.52;;;12.23;;
22754;SDS011;11544;42.020;23.094;2022-11-15T01:05:05;25.48;;;12.13;;
22754;SDS011;11544;42.020;23.094;2022-11-15T01:07:32;28.60;;;12.63;;
22754;SDS011;11544;42.020;23.094;2022-11-15T01:09:59;23.17;;;11.95;;
22754;SDS011;11544;42.020;23.094;2022-11-15T01:12:26;24.77;;;12.20;;
22754;SDS011;11544;42.020;23.094;2022-11-15T01:14:53;27.58;;;11.90;;
22754;SDS011;11544;42.020;23.094;2022-11-15T01:17:20;26.00;;;13.45;;
22754;SDS011;11544;42.020;23.094;2022-11-15T01:19:47;22.75;;;12.32;;
22754;SDS011;11544;42.020;23.094;2022-11-15T01:22:13;25.00;;;12.98;;
22754;SDS011;11544;42.020;23.094;2022-11-15T01:24:40;24.83;;;12.82;;
22754;SDS011;11544;42.020;23.094;2022-11-15T01:27:07;26.17;;;12.60;;
22754;SDS011;11544;42.020;23.094;2022-11-15T01:29:34;22.45;;;12.35;;
22754;SDS011;11544;42.020;23.094;2022-11-15T01:32:01;20.52;;;11.52;;
22754;SDS011;11544;42.020;23.094;2022-11-15T01:34:28;22.42;;;11.85;;
22754;SDS011;11544;42.020;23.094;2022-11-15T01:36:54;22.38;;;11.20;;
22754;SDS011;11544;42.020;23.094;2022-11-15T01:39:21;23.95;;;11.02;;
22754;SDS011;11544;42.020;23.094;2022-11-15T01:41:48;22.88;;;10.90;;
22754;SDS011;11544;42.020;23.094;2022-11-15T01:47:04;19.63;;;10.38;;
22754;SDS011;11544;42.020;23.094;2022-11-15T01:49:50;21.10;;;11.00;;
22754;SDS011;11544;42.020;23.094;2022-11-15T01:52:30;18.88;;;10.70;;
22754;SDS011;11544;42.020;23.094;2022-11-15T01:57:28;18.95;;;8.90;;
22754;SDS011;11544;42.020;23.094;2022-11-15T01:59:56;17.73;;;8.32;;
22754;SDS011;11544;42.020;23.094;2022-11-15T02:02:24;16.08;;;8.52;;
22754;SDS011;11544;42.020;23.094;2022-11-15T02:04:51;12.82;;;7.78;;
22754;SDS011;11544;42.020;23.094;2022-11-15T02:07:19;18.10;;;9.70;;
22754;SDS011;11544;42.020;23.094;2022-11-15T02:09:48;16.63;;;8.48;;
22754;SDS011;11544;42.020;23.094;2022-11-15T02:12:17;13.77;;;8.10;;
22754;SDS011;11544;42.020;23.094;2022-11-15T02:14:47;16.52;;;8.82;;
22754;SDS011;11544;42.020;23.094;2022-11-15T02:25:39;17.52;;;8.32;;
22754;SDS011;11544;42.020;23.094;2022-11-15T02:31:35;19.20;;;8.93;;
22754;SDS011;11544;42.020;23.094;2022-11-15T02:34:22;23.15;;;12.27;;
22754;SDS011;11544;42.020;23.094;2022-11-15T02:37:16;25.95;;;12.65;;
22754;SDS011;11544;42.020;23.094;2022-11-15T02:43:25;23.48;;;11.70;;
22754;SDS011;11544;42.020;23.094;2022-11-15T02:49:21;23.52;;;11.68;;
22754;SDS011;11544;42.020;23.094;2022-11-15T02:51:50;22.00;;;11.52;;
22754;SDS011;11544;42.020;23.094;2022-11-15T02:54:20;29.25;;;13.30;;
22754;SDS011;11544;42.020;23.094;2022-11-15T02:56:49;26.67;;;12.15;;
22754;SDS011;11544;42.020;23.094;2022-11-15T03:02:08;25.55;;;11.90;;
22754;SDS011;11544;42.020;23.094;2022-11-15T03:12:57;26.50;;;11.43;;
22754;SDS011;11544;42.020;23.094;2022-11-15T03:15:37;23.77;;;12.07;;
22754;SDS011;11544;42.020;23.094;2022-11-15T03:18:28;21.98;;;12.13;;
22754;SDS011;11544;42.020;23.094;2022-11-15T03:21:00;22.67;;;10.88;;
22754;SDS011;11544;42.020;23.094;2022-11-15T03:23:31;21.27;;;11.13;;
22754;SDS011;11544;42.020;23.094;2022-11-15T03:26:00;21.85;;;11.05;;
22754;SDS011;11544;42.020;23.094;2022-11-15T03:28:29;21.42;;;10.60;;
22754;SDS011;11544;42.020;23.094;2022-11-15T03:31:01;21.08;;;10.20;;
22754;SDS011;11544;42.020;23.094;2022-11-15T03:33:50;21.73;;;10.82;;
22754;SDS011;11544;42.020;23.094;2022-11-15T03:36:21;19.77;;;10.10;;
22754;SDS011;11544;42.020;23.094;2022-11-15T03:38:49;20.95;;;10.52;;
22754;SDS011;11544;42.020;23.094;2022-11-15T03:41:24;21.08;;;10.63;;
22754;SDS011;11544;42.020;23.094;2022-11-15T03:44:01;22.52;;;11.45;;
22754;SDS011;11544;42.020;23.094;2022-11-15T03:46:45;18.58;;;10.75;;
22754;SDS011;11544;42.020;23.094;2022-11-15T03:49:20;21.42;;;10.30;;
22754;SDS011;11544;42.020;23.094;2022-11-15T03:51:52;18.75;;;10.38;;
22754;SDS011;11544;42.020;23.094;2022-11-15T03:54:36;24.02;;;11.98;;
22754;SDS011;11544;42.020;23.094;2022-11-15T03:57:03;25.15;;;12.00;;
22754;SDS011;11544;42.020;23.094;2022-11-15T03:59:32;25.98;;;12.27;;
22754;SDS011;11544;42.020;23.094;2022-11-15T04:01:59;29.33;;;13.70;;
22754;SDS011;11544;42.020;23.094;2022-11-15T04:04:26;23.65;;;12.30;;
22754;SDS011;11544;42.020;23.094;2022-11-15T04:06:52;25.63;;;13.10;;
22754;SDS011;11544;42.020;23.094;2022-11-15T04:09:19;23.13;;;12.43;;
22754;SDS011;11544;42.020;23.094;2022-11-15T04:11:46;30.63;;;13.60;;
22754;SDS011;11544;42.020;23.094;2022-11-15T04:14:13;27.42;;;12.65;;
22754;SDS011;11544;42.020;23.094;2022-11-15T04:16:39;28.67;;;12.48;;
22754;SDS011;11544;42.020;23.094;2022-11-15T04:19:09;23.92;;;11.68;;
22754;SDS011;11544;42.020;23.094;2022-11-15T04:21:54;27.08;;;12.82;;
22754;SDS011;11544;42.020;23.094;2022-11-15T04:24:39;22.95;;;11.45;;
22754;SDS011;11544;42.020;23.094;2022-11-15T04:27:06;22.80;;;13.43;;
22754;SDS011;11544;42.020;23.094;2022-11-15T04:29:33;25.20;;;12.07;;
22754;SDS011;11544;42.020;23.094;2022-11-15T04:32:04;22.35;;;11.43;;
22754;SDS011;11544;42.020;23.094;2022-11-15T04:34:32;29.50;;;11.55;;
22754;SDS011;11544;42.020;23.094;2022-11-15T04:36:59;23.60;;;12.38;;
22754;SDS011;11544;42.020;23.094;2022-11-15T04:39:39;23.70;;;12.13;;
22754;SDS011;11544;42.020;23.094;2022-11-15T04:42:07;25.58;;;12.32;;
22754;SDS011;11544;42.020;23.094;2022-11-15T04:44:33;25.13;;;12.32;;
22754;SDS011;11544;42.020;23.094;2022-11-15T04:47:00;27.25;;;13.27;;
22754;SDS011;11544;42.020;23.094;2022-11-15T04:49:27;22.90;;;12.88;;
22754;SDS011;11544;42.020;23.094;2022-11-15T04:51:55;25.25;;;12.35;;
22754;SDS011;11544;42.020;23.094;2022-11-15T04:54:22;23.33;;;13.27;;
22754;SDS011;11544;42.020;23.094;2022-11-15T04:56:48;28.20;;;12.63;;
22754;SDS011;11544;42.020;23.094;2022-11-15T04:59:15;31.58;;;12.77;;
22754;SDS011;11544;42.020;23.094;2022-11-15T05:01:42;28.15;;;13.10;;
22754;SDS011;11544;42.020;23.094;2022-11-15T05:04:10;32.63;;;14.18;;
22754;SDS011;11544;42.020;23.094;2022-11-15T05:06:50;27.33;;;13.07;;
22754;SDS011;11544;42.020;23.094;2022-11-15T05:09:18;24.83;;;13.00;;
22754;SDS011;11544;42.020;23.094;2022-11-15T05:11:46;28.27;;;13.23;;
22754;SDS011;11544;42.020;23.094;2022-11-15T05:14:13;30.33;;;13.48;;
22754;SDS011;11544;42.020;23.094;2022-11-15T05:16:40;27.15;;;12.27;;
22754;SDS011;11544;42.020;23.094;2022-11-15T05:19:07;21.80;;;13.15;;
22754;SDS011;11544;42.020;23.094;2022-11-15T05:21:34;25.20;;;11.90;;
22754;SDS011;11544;42.020;23.094;2022-11-15T05:24:02;22.75;;;12.80;;
22754;SDS011;11544;42.020;23.094;2022-11-15T05:26:28;27.05;;;13.70;;
22754;SDS011;11544;42.020;23.094;2022-11-15T05:28:56;28.45;;;13.52;;
22754;SDS011;11544;42.020;23.094;2022-11-15T05:31:25;29.55;;;14.85;;
22754;SDS011;11544;42.020;23.094;2022-11-15T05:33:53;29.65;;;13.98;;
22754;SDS011;11544;42.020;23.094;2022-11-15T05:38:53;27.60;;;13.93;;
22754;SDS011;11544;42.020;23.094;2022-11-15T05:41:22;29.38;;;15.05;;
22754;SDS011;11544;42.020;23.094;2022-11-15T05:43:57;27.95;;;13.95;;
22754;SDS011;11544;42.020;23.094;2022-11-15T05:46:25;29.63;;;14.07;;
22754;SDS011;11544;42.020;23.094;2022-11-15T05:48:52;26.25;;;13.90;;
22754;SDS011;11544;42.020;23.094;2022-11-15T05:51:21;26.00;;;14.35;;
22754;SDS011;11544;42.020;23.094;2022-11-15T05:53:49;27.58;;;14.73;;
22754;SDS011;11544;42.020;23.094;2022-11-15T05:56:18;26.73;;;13.65;;
22754;SDS011;11544;42.020;23.094;2022-11-15T05:58:45;26.88;;;13.98;;
22754;SDS011;11544;42.020;23.094;2022-11-15T06:01:12;32.03;;;15.90;;
22754;SDS011;11544;42.020;23.094;2022-11-15T06:03:39;25.45;;;14.63;;
22754;SDS011;11544;42.020;23.094;2022-11-15T06:06:06;32.90;;;15.55;;
22754;SDS011;11544;42.020;23.094;2022-11-15T06:08:38;27.55;;;14.70;;
22754;SDS011;11544;42.020;23.094;2022-11-15T06:11:14;26.17;;;13.90;;
22754;SDS011;11544;42.020;23.094;2022-11-15T06:13:41;27.58;;;14.15;;
22754;SDS011;11544;42.020;23.094;2022-11-15T06:16:08;29.77;;;14.98;;
22754;SDS011;11544;42.020;23.094;2022-11-15T06:18:35;28.10;;;13.25;;
22754;SDS011;11544;42.020;23.094;2022-11-15T06:21:02;31.88;;;14.57;;
22754;SDS011;11544;42.020;23.094;2022-11-15T06:23:33;34.38;;;15.43;;
22754;SDS011;11544;42.020;23.094;2022-11-15T06:26:01;31.10;;;14.82;;
22754;SDS011;11544;42.020;23.094;2022-11-15T06:28:29;31.95;;;13.93;;
22754;SDS011;11544;42.020;23.094;2022-11-15T06:31:10;25.02;;;13.75;;
22754;SDS011;11544;42.020;23.094;2022-11-15T06:33:38;30.80;;;14.35;;
22754;SDS011;11544;42.020;23.094;2022-11-15T06:36:07;35.58;;;14.25;;
22754;SDS011;11544;42.020;23.094;2022-11-15T06:38:43;32.47;;;15.07;;
22754;SDS011;11544;42.020;23.094;2022-11-15T06:41:12;30.65;;;14.73;;
22754;SDS011;11544;42.020;23.094;2022-11-15T06:43:40;31.63;;;14.50;;
22754;SDS011;11544;42.020;23.094;2022-11-15T06:46:07;30.23;;;16.00;;
22754;SDS011;11544;42.020;23.094;2022-11-15T06:48:35;32.47;;;15.18;;
22754;SDS011;11544;42.020;23.094;2022-11-15T06:51:03;29.10;;;15.80;;
22754;SDS011;11544;42.020;23.094;2022-11-15T06:53:30;32.22;;;16.10;;
22754;SDS011;11544;42.020;23.094;2022-11-15T06:56:03;37.10;;;15.98;;
22754;SDS011;11544;42.020;23.094;2022-11-15T06:58:34;32.58;;;16.13;;
22754;SDS011;11544;42.020;23.094;2022-11-15T07:01:03;37.15;;;17.50;;
22754;SDS011;11544;42.020;23.094;2022-11-15T07:03:31;30.27;;;15.18;;
22754;SDS011;11544;42.020;23.094;2022-11-15T07:06:00;38.03;;;17.27;;
22754;SDS011;11544;42.020;23.094;2022-11-15T07:08:33;37.65;;;17.55;;
22754;SDS011;11544;42.020;23.094;2022-11-15T07:11:06;36.42;;;17.63;;
22754;SDS011;11544;42.020;23.094;2022-11-15T07:13:34;35.30;;;17.67;;
22754;SDS011;11544;42.020;23.094;2022-11-15T07:16:03;32.83;;;16.77;;
22754;SDS011;11544;42.020;23.094;2022-11-15T07:18:34;31.40;;;16.55;;
22754;SDS011;11544;42.020;23.094;2022-11-15T07:21:04;30.58;;;14.55;;
22754;SDS011;11544;42.020;23.094;2022-11-15T07:23:32;34.75;;;16.48;;
22754;SDS011;11544;42.020;23.094;2022-11-15T07:25:59;25.95;;;14.38;;
22754;SDS011;11544;42.020;23.094;2022-11-15T07:28:27;38.08;;;18.13;;
22754;SDS011;11544;42.020;23.094;2022-11-15T07:30:54;33.67;;;16.42;;
22754;SDS011;11544;42.020;23.094;2022-11-15T07:33:20;36.38;;;16.23;;
22754;SDS011;11544;42.020;23.094;2022-11-15T07:35:48;33.45;;;16.63;;
22754;SDS011;11544;42.020;23.094;2022-11-15T07:38:15;39.25;;;19.15;;
22754;SDS011;11544;42.020;23.094;2022-11-15T07:40:46;37.28;;;17.27;;
22754;SDS011;11544;42.020;23.094;2022-11-15T07:43:13;31.88;;;17.48;;
22754;SDS011;11544;42.020;23.094;2022-11-15T07:45:41;44.40;;;17.90;;
22754;SDS011;11544;42.020;23.094;2022-11-15T07:48:09;34.75;;;17.35;;
22754;SDS011;11544;42.020;23.094;2022-11-15T07:50:36;34.53;;;17.55;;
22754;SDS011;11544;42.020;23.094;2022-11-15T07:53:07;36.63;;;18.50;;
22754;SDS011;11544;42.020;23.094;2022-11-15T07:55:34;38.38;;;17.60;;
22754;SDS011;11544;42.020;23.094;2022-11-15T07:58:02;42.10;;;19.38;;
22754;SDS011;11544;42.020;23.094;2022-11-15T08:00:30;33.45;;;16.65;;
22754;SDS011;11544;42.020;23.094;2022-11-15T08:03:01;40.25;;;18.02;;
22754;SDS011;11544;42.020;23.094;2022-11-15T08:05:29;38.58;;;16.98;;
22754;SDS011;11544;42.020;23.094;2022-11-15T08:07:56;42.63;;;18.98;;
22754;SDS011;11544;42.020;23.094;2022-11-15T08:10:23;36.05;;;17.30;;
22754;SDS011;11544;42.020;23.094;2022-11-15T08:12:57;43.45;;;20.13;;
22754;SDS011;11544;42.020;23.094;2022-11-15T08:15:27;35.83;;;17.73;;
22754;SDS011;11544;42.020;23.094;2022-11-15T08:17:59;34.97;;;18.17;;
22754;SDS011;11544;42.020;23.094;2022-11-15T08:20:28;39.97;;;19.40;;
22754;SDS011;11544;42.020;23.094;2022-11-15T08:22:57;31.20;;;18.40;;
22754;SDS011;11544;42.020;23.094;2022-11-15T08:25:25;36.55;;;18.83;;
22754;SDS011;11544;42.020;23.094;2022-11-15T08:27:54;43.80;;;16.98;;
22754;SDS011;11544;42.020;23.094;2022-11-15T08:30:22;40.45;;;19.05;;
22754;SDS011;11544;42.020;23.094;2022-11-15T08:32:50;41.75;;;18.80;;
22754;SDS011;11544;42.020;23.094;2022-11-15T08:35:18;39.28;;;18.42;;
22754;SDS011;11544;42.020;23.094;2022-11-15T08:37:53;39.35;;;18.63;;
22754;SDS011;11544;42.020;23.094;2022-11-15T08:40:20;40.45;;;17.25;;
22754;SDS011;11544;42.020;23.094;2022-11-15T08:42:49;42.28;;;17.10;;
22754;SDS011;11544;42.020;23.094;2022-11-15T08:45:15;33.45;;;17.38;;
22754;SDS011;11544;42.020;23.094;2022-11-15T08:47:42;36.13;;;16.85;;
22754;SDS011;11544;42.020;23.094;2022-11-15T08:50:19;37.67;;;16.63;;
22754;SDS011;11544;42.020;23.094;2022-11-15T08:52:46;33.28;;;16.08;;
22754;SDS011;11544;42.020;23.094;2022-11-15T08:55:16;36.03;;;16.65;;
22754;SDS011;11544;42.020;23.094;2022-11-15T08:57:43;36.67;;;17.10;;
22754;SDS011;11544;42.020;23.094;2022-11-15T09:00:11;38.03;;;16.45;;
22754;SDS011;11544;42.020;23.094;2022-11-15T09:02:39;29.33;;;15.50;;
22754;SDS011;11544;42.020;23.094;2022-11-15T09:05:06;31.65;;;15.57;;
22754;SDS011;11544;42.020;23.094;2022-11-15T09:07:33;35.42;;;15.38;;
22754;SDS011;11544;42.020;23.094;2022-11-15T09:10:02;36.47;;;14.73;;
22754;SDS011;11544;42.020;23.094;2022-11-15T09:12:29;27.63;;;14.20;;
22754;SDS011;11544;42.020;23.094;2022-11-15T09:14:56;31.35;;;15.60;;
22754;SDS011;11544;42.020;23.094;2022-11-15T09:17:24;38.92;;;15.30;;
22754;SDS011;11544;42.020;23.094;2022-11-15T09:19:51;36.45;;;15.63;;
22754;SDS011;11544;42.020;23.094;2022-11-15T09:22:18;39.53;;;17.27;;
22754;SDS011;11544;42.020;23.094;2022-11-15T09:24:48;36.83;;;16.73;;
22754;SDS011;11544;42.020;23.094;2022-11-15T09:27:15;41.72;;;16.73;;
22754;SDS011;11544;42.020;23.094;2022-11-15T09:29:59;32.63;;;16.30;;
22754;SDS011;11544;42.020;23.094;2022-11-15T09:32:28;31.42;;;15.98;;
22754;SDS011;11544;42.020;23.094;2022-11-15T09:35:04;31.65;;;15.13;;
22754;SDS011;11544;42.020;23.094;2022-11-15T09:37:31;39.72;;;15.43;;
22754;SDS011;11544;42.020;23.094;2022-11-15T09:39:59;34.08;;;14.90;;
22754;SDS011;11544;42.020;23.094;2022-11-15T09:45:06;29.65;;;15.52;;
22754;SDS011;11544;42.020;23.094;2022-11-15T09:56:26;33.65;;;13.90;;
22754;SDS011;11544;42.020;23.094;2022-11-15T10:04:30;32.72;;;13.50;;
22754;SDS011;11544;42.020;23.094;2022-11-15T10:09:36;32.45;;;15.32;;
22754;SDS011;11544;42.020;23.094;2022-11-15T10:12:12;30.58;;;14.50;;
22754;SDS011;11544;42.020;23.094;2022-11-15T10:14:40;30.08;;;14.55;;
22754;SDS011;11544;42.020;23.094;2022-11-15T10:22:35;30.17;;;14.40;;
22754;SDS011;11544;42.020;23.094;2022-11-15T10:27:34;26.13;;;13.88;;
22754;SDS011;11544;42.020;23.094;2022-11-15T10:30:02;31.00;;;13.32;;
22754;SDS011;11544;42.020;23.094;2022-11-15T10:32:40;27.00;;;11.68;;
22754;SDS011;11544;42.020;23.094;2022-11-15T10:35:22;28.13;;;13.80;;
22754;SDS011;11544;42.020;23.094;2022-11-15T10:37:51;28.48;;;13.18;;
22754;SDS011;11544;42.020;23.094;2022-11-15T10:43:12;23.67;;;12.20;;
22754;SDS011;11544;42.020;23.094;2022-11-15T10:45:42;26.67;;;13.55;;
22754;SDS011;11544;42.020;23.094;2022-11-15T10:50:44;26.40;;;12.60;;
22754;SDS011;11544;42.020;23.094;2022-11-15T10:53:23;23.55;;;12.38;;
22754;SDS011;11544;42.020;23.094;2022-11-15T10:55:56;24.73;;;13.48;;
22754;SDS011;11544;42.020;23.094;2022-11-15T11:00:56;28.73;;;14.23;;
22754;SDS011;11544;42.020;23.094;2022-11-15T11:03:44;23.10;;;13.13;;
22754;SDS011;11544;42.020;23.094;2022-11-15T11:06:24;28.02;;;13.60;;
22754;SDS011;11544;42.020;23.094;2022-11-15T11:14:26;23.65;;;13.25;;
22754;SDS011;11544;42.020;23.094;2022-11-15T11:31:13;21.63;;;11.43;;
22754;SDS011;11544;42.020;23.094;2022-11-15T11:33:48;22.42;;;11.75;;
22754;SDS011;11544;42.020;23.094;2022-11-15T11:41:57;23.92;;;12.48;;
22754;SDS011;11544;42.020;23.094;2022-11-15T11:44:57;27.23;;;13.77;;
22754;SDS011;11544;42.020;23.094;2022-11-15T11:47:38;27.70;;;12.98;;
22754;SDS011;11544;42.020;23.094;2022-11-15T11:50:24;24.48;;;13.52;;
22754;SDS011;11544;42.020;23.094;2022-11-15T11:55:31;21.02;;;12.00;;
22754;SDS011;11544;42.020;23.094;2022-11-15T11:58:26;26.20;;;12.25;;
22754;SDS011;11544;42.020;23.094;2022-11-15T12:01:09;19.48;;;10.27;;
22754;SDS011;11544;42.020;23.094;2022-11-15T12:03:48;23.50;;;12.02;;
22754;SDS011;11544;42.020;23.094;2022-11-15T12:08:56;23.48;;;12.77;;
22754;SDS011;11544;42.020;23.094;2022-11-15T12:16:58;21.90;;;12.32;;
22754;SDS011;11544;42.020;23.094;2022-11-15T12:19:26;19.55;;;11.10;;
22754;SDS011;11544;42.020;23.094;2022-11-15T12:30:16;22.27;;;11.90;;
22754;SDS011;11544;42.020;23.094;2022-11-15T12:32:51;17.95;;;9.75;;
22754;SDS011;11544;42.020;23.094;2022-11-15T12:35:23;16.45;;;10.07;;
22754;SDS011;11544;42.020;23.094;2022-11-15T12:37:53;17.23;;;9.55;;
22754;SDS011;11544;42.020;23.094;2022-11-15T12:43:37;16.85;;;9.45;;
22754;SDS011;11544;42.020;23.094;2022-11-15T12:45:43;15.05;;;9.25;;
22754;SDS011;11544;42.020;23.094;2022-11-15T12:58:41;17.50;;;10.52;;
22754;SDS011;11544;42.020;23.094;2022-11-15T13:01:10;13.93;;;9.13;;
22754;SDS011;11544;42.020;23.094;2022-11-15T13:06:47;18.00;;;9.15;;
22754;SDS011;11544;42.020;23.094;2022-11-15T13:12:10;14.30;;;9.15;;
22754;SDS011;11544;42.020;23.094;2022-11-15T13:15:01;19.25;;;9.73;;
22754;SDS011;11544;42.020;23.094;2022-11-15T13:17:52;17.90;;;10.43;;
22754;SDS011;11544;42.020;23.094;2022-11-15T13:20:28;16.17;;;9.73;;
22754;SDS011;11544;42.020;23.094;2022-11-15T13:23:01;20.13;;;10.52;;
22754;SDS011;11544;42.020;23.094;2022-11-15T13:28:10;17.13;;;9.65;;
22754;SDS011;11544;42.020;23.094;2022-11-15T13:30:50;16.92;;;10.23;;
22754;SDS011;11544;42.020;23.094;2022-11-15T13:38:44;19.45;;;10.20;;
22754;SDS011;11544;42.020;23.094;2022-11-15T13:41:21;21.42;;;10.90;;
22754;SDS011;11544;42.020;23.094;2022-11-15T13:43:50;18.20;;;10.07;;
22754;SDS011;11544;42.020;23.094;2022-11-15T13:46:20;15.93;;;9.77;;
22754;SDS011;11544;42.020;23.094;2022-11-15T13:48:53;17.75;;;10.02;;
22754;SDS011;11544;42.020;23.094;2022-11-15T13:54:01;18.90;;;9.95;;
22754;SDS011;11544;42.020;23.094;2022-11-15T13:56:57;21.65;;;10.40;;
22754;SDS011;11544;42.020;23.094;2022-11-15T13:59:28;16.80;;;9.55;;
22754;SDS011;11544;42.020;23.094;2022-11-15T14:02:01;17.13;;;10.30;;
22754;SDS011;11544;42.020;23.094;2022-11-15T14:04:38;18.55;;;10.35;;
22754;SDS011;11544;42.020;23.094;2022-11-15T14:07:16;20.48;;;10.82;;
22754;SDS011;11544;42.020;23.094;2022-11-15T14:09:46;15.27;;;9.05;;
22754;SDS011;11544;42.020;23.094;2022-11-15T14:12:24;16.83;;;10.02;;
22754;SDS011;11544;42.020;23.094;2022-11-15T14:14:51;19.23;;;10.63;;
22754;SDS011;11544;42.020;23.094;2022-11-15T14:19:54;23.80;;;11.38;;
22754;SDS011;11544;42.020;23.094;2022-11-15T14:22:22;20.45;;;11.40;;
22754;SDS011;11544;42.020;23.094;2022-11-15T14:27:33;17.85;;;10.27;;
22754;SDS011;11544;42.020;23.094;2022-11-15T14:30:04;16.30;;;10.18;;
22754;SDS011;11544;42.020;23.094;2022-11-15T14:33:11;17.27;;;9.25;;
22754;SDS011;11544;42.020;23.094;2022-11-15T14:35:25;14.98;;;9.20;;
22754;SDS011;11544;42.020;23.094;2022-11-15T14:37:52;20.00;;;11.38;;
22754;SDS011;11544;42.020;23.094;2022-11-15T14:40:20;19.08;;;10.57;;
22754;SDS011;11544;42.020;23.094;2022-11-15T14:42:48;15.90;;;9.57;;
22754;SDS011;11544;42.020;23.094;2022-11-15T14:45:18;19.20;;;10.20;;
22754;SDS011;11544;42.020;23.094;2022-11-15T14:47:46;17.20;;;10.02;;
22754;SDS011;11544;42.020;23.094;2022-11-15T14:50:15;16.33;;;9.60;;
22754;SDS011;11544;42.020;23.094;2022-11-15T14:52:44;18.40;;;9.95;;
22754;SDS011;11544;42.020;23.094;2022-11-15T14:55:22;21.40;;;10.32;;
22754;SDS011;11544;42.020;23.094;2022-11-15T14:57:52;17.85;;;10.63;;
22754;SDS011;11544;42.020;23.094;2022-11-15T15:00:20;18.20;;;10.70;;
22754;SDS011;11544;42.020;23.094;2022-11-15T15:02:48;19.90;;;11.15;;
22754;SDS011;11544;42.020;23.094;2022-11-15T15:05:18;15.95;;;10.15;;
22754;SDS011;11544;42.020;23.094;2022-11-15T15:07:47;18.70;;;10.57;;
22754;SDS011;11544;42.020;23.094;2022-11-15T15:10:15;20.35;;;10.57;;
22754;SDS011;11544;42.020;23.094;2022-11-15T15:13:04;19.50;;;11.85;;
22754;SDS011;11544;42.020;23.094;2022-11-15T15:15:33;22.60;;;11.93;;
22754;SDS011;11544;42.020;23.094;2022-11-15T15:18:04;25.08;;;13.68;;
22754;SDS011;11544;42.020;23.094;2022-11-15T15:20:31;23.05;;;12.05;;
22754;SDS011;11544;42.020;23.094;2022-11-15T15:22:59;23.20;;;10.90;;
22754;SDS011;11544;42.020;23.094;2022-11-15T15:25:31;19.75;;;11.25;;
22754;SDS011;11544;42.020;23.094;2022-11-15T15:28:03;24.88;;;12.55;;
22754;SDS011;11544;42.020;23.094;2022-11-15T15:30:30;23.75;;;13.00;;
22754;SDS011;11544;42.020;23.094;2022-11-15T15:32:57;28.15;;;14.70;;
22754;SDS011;11544;42.020;23.094;2022-11-15T15:35:24;25.55;;;13.95;;
22754;SDS011;11544;42.020;23.094;2022-11-15T15:37:57;23.73;;;14.57;;
22754;SDS011;11544;42.020;23.094;2022-11-15T15:40:30;25.60;;;14.40;;
22754;SDS011;11544;42.020;23.094;2022-11-15T15:42:59;27.55;;;14.48;;
22754;SDS011;11544;42.020;23.094;2022-11-15T15:45:26;29.27;;;15.75;;
22754;SDS011;11544;42.020;23.094;2022-11-15T15:48:00;26.27;;;14.55;;
22754;SDS011;11544;42.020;23.094;2022-11-15T15:50:29;26.48;;;14.95;;
22754;SDS011;11544;42.020;23.094;2022-11-15T15:53:00;25.45;;;16.38;;
22754;SDS011;11544;42.020;23.094;2022-11-15T15:55:31;27.23;;;16.05;;
22754;SDS011;11544;42.020;23.094;2022-11-15T15:57:58;28.08;;;15.07;;
22754;SDS011;11544;42.020;23.094;2022-11-15T16:00:24;28.67;;;15.77;;
22754;SDS011;11544;42.020;23.094;2022-11-15T16:02:52;29.98;;;14.98;;
22754;SDS011;11544;42.020;23.094;2022-11-15T16:05:20;32.88;;;17.50;;
22754;SDS011;11544;42.020;23.094;2022-11-15T16:07:48;29.63;;;15.32;;
22754;SDS011;11544;42.020;23.094;2022-11-15T16:12:53;27.55;;;15.70;;
22754;SDS011;11544;42.020;23.094;2022-11-15T16:15:22;26.27;;;14.55;;
22754;SDS011;11544;42.020;23.094;2022-11-15T16:17:51;22.58;;;13.35;;
22754;SDS011;11544;42.020;23.094;2022-11-15T16:23:04;26.17;;;15.05;;
22754;SDS011;11544;42.020;23.094;2022-11-15T16:25:45;27.58;;;15.43;;
22754;SDS011;11544;42.020;23.094;2022-11-15T16:28:18;28.20;;;14.13;;
22754;SDS011;11544;42.020;23.094;2022-11-15T16:30:48;30.45;;;17.38;;
22754;SDS011;11544;42.020;23.094;2022-11-15T16:33:22;32.70;;;18.83;;
22754;SDS011;11544;42.020;23.094;2022-11-15T16:35:50;31.08;;;18.05;;
22754;SDS011;11544;42.020;23.094;2022-11-15T16:38:17;33.30;;;19.50;;
22754;SDS011;11544;42.020;23.094;2022-11-15T16:40:44;34.95;;;19.20;;
22754;SDS011;11544;42.020;23.094;2022-11-15T16:43:11;25.95;;;15.35;;
22754;SDS011;11544;42.020;23.094;2022-11-15T16:45:37;26.85;;;15.35;;
22754;SDS011;11544;42.020;23.094;2022-11-15T16:48:05;27.52;;;15.45;;
22754;SDS011;11544;42.020;23.094;2022-11-15T16:50:32;27.40;;;14.85;;
22754;SDS011;11544;42.020;23.094;2022-11-15T16:53:06;30.92;;;14.45;;
22754;SDS011;11544;42.020;23.094;2022-11-15T16:55:33;31.27;;;16.95;;
22754;SDS011;11544;42.020;23.094;2022-11-15T16:58:00;24.42;;;14.07;;
22754;SDS011;11544;42.020;23.094;2022-11-15T17:00:28;29.58;;;15.25;;
22754;SDS011;11544;42.020;23.094;2022-11-15T17:02:55;32.60;;;16.40;;
22754;SDS011;11544;42.020;23.094;2022-11-15T17:05:39;30.83;;;15.00;;
22754;SDS011;11544;42.020;23.094;2022-11-15T17:08:07;24.52;;;14.55;;